Milford, Utah
Current Conditions -  °F | °C
As of 7:52 PM on Tuesday 21 Oct 2014 (Local Time) from KMLF Reporting Station
Broken Clouds Broken Clouds  
Wind Chill: 58°   Ceiling: 8000
Heat Index: 58°   Visibility: 10mi
Dew Point: 34°   Wind: 21mph
Humidity: 41%   Direction: 350°N
Pressure: 29.99"   Gusts: NA
Location:  38.4°N, 113.01°W
Report Text: KMLF 220152Z AUTO 35018KT 10SM BKN080 BKN095 14/01 A2999 RMK AO2 PK WND 36030/0103 WSHFT 0045 SLP120 T01440011 TSNO
Loading
Personal Weather Stations






























Interactive Weather Map New forecast layout! Learn more

10-Day Weather Forecast

Advertisements
Track Severe Weather on mobile